Time;durP1;ratioP1;P1;durP2;ratioP2;P2;SDS_P1;SDS_P2;PMS_P1;PMS_P2;Temp;Humidity;BMP_temperature;BMP_pressure;BME280_temperature;BME280_humidity;BME280_pressure;Samples;Min_cycle;Max_cycle;Signal;HPM_P1;HPM_P2
2023/01/10 00:01:32;;;;;;;6.78;2.45;;;5.10;99.90;;;;;;4983174;28;20055;-69
2023/01/10 00:03:59;;;;;;;5.25;2.15;;;5.00;99.90;;;;;;4979471;28;20141;-68
2023/01/10 00:06:27;;;;;;;6.55;2.20;;;5.00;99.90;;;;;;4964169;28;20565;-68
2023/01/10 00:08:56;;;;;;;4.65;2.00;;;5.10;99.90;;;;;;4975346;28;20478;-69
2023/01/10 00:14:11;;;;;;;7.32;2.40;;;5.10;99.90;;;;;;4973799;28;20047;-70
2023/01/10 00:16:39;;;;;;;7.00;2.65;;;5.10;99.90;;;;;;4958067;28;20480;-68
2023/01/10 00:19:08;;;;;;;4.28;2.33;;;5.10;99.90;;;;;;4983458;28;20553;-69
2023/01/10 00:21:36;;;;;;;7.22;2.40;;;5.10;99.90;;;;;;5010996;28;20136;-70
2023/01/10 00:24:15;;;;;;;6.80;2.80;;;5.10;99.90;;;;;;5031175;28;20164;-69
2023/01/10 00:26:53;;;;;;;6.40;2.70;;;5.10;99.90;;;;;;5031255;28;20132;-69
2023/01/10 00:29:24;;;;;;;4.57;2.50;;;5.20;99.90;;;;;;5030579;28;20049;-69
2023/01/10 00:31:51;;;;;;;5.28;2.70;;;5.20;99.90;;;;;;5030015;28;20045;-69
2023/01/10 00:34:19;;;;;;;6.53;2.70;;;5.20;99.90;;;;;;5031206;28;20468;-69
2023/01/10 00:36:46;;;;;;;5.40;2.63;;;5.10;99.90;;;;;;5031199;28;20044;-69
2023/01/10 00:39:15;;;;;;;8.65;2.72;;;5.10;99.90;;;;;;5031622;28;20475;-70
2023/01/10 00:44:28;;;;;;;5.28;3.00;;;5.10;99.90;;;;;;5002447;28;20053;-69
2023/01/10 00:46:55;;;;;;;4.72;2.80;;;5.10;99.90;;;;;;5029777;28;20114;-69
2023/01/10 00:49:22;;;;;;;6.78;3.28;;;5.10;99.90;;;;;;5043094;28;20052;-70
2023/01/10 00:51:50;;;;;;;4.55;2.60;;;5.10;99.90;;;;;;5028870;28;20380;-70
2023/01/10 00:54:17;;;;;;;7.10;3.40;;;5.10;99.90;;;;;;5029074;28;20041;-69
2023/01/10 00:56:44;;;;;;;4.80;2.35;;;5.20;99.90;;;;;;5030352;28;20053;-69
2023/01/10 00:59:11;;;;;;;6.53;3.15;;;5.20;99.90;;;;;;5044317;28;20037;-70
2023/01/10 01:01:39;;;;;;;6.20;2.90;;;5.20;99.90;;;;;;5029233;28;20142;-69
2023/01/10 01:04:06;;;;;;;5.40;2.88;;;5.20;99.90;;;;;;5030276;28;20110;-69
2023/01/10 01:06:33;;;;;;;5.03;2.90;;;5.20;99.90;;;;;;5033538;28;20407;-70
2023/01/10 01:09:01;;;;;;;5.72;2.72;;;5.20;99.90;;;;;;5032949;28;20041;-70
2023/01/10 01:11:28;;;;;;;4.38;2.58;;;5.20;99.90;;;;;;5042067;28;20045;-69
2023/01/10 01:13:55;;;;;;;4.10;2.63;;;5.20;99.90;;;;;;5029831;28;20095;-69
2023/01/10 01:16:22;;;;;;;4.15;2.67;;;5.20;99.90;;;;;;5028906;28;20044;-70
2023/01/10 01:18:50;;;;;;;6.53;3.22;;;5.20;99.90;;;;;;5028291;28;20056;-70
2023/01/10 01:21:17;;;;;;;4.55;2.72;;;5.20;99.90;;;;;;5029996;28;20180;-70
2023/01/10 01:23:44;;;;;;;7.50;2.75;;;5.20;99.90;;;;;;5029632;28;20128;-68
2023/01/10 01:26:12;;;;;;;5.88;3.05;;;5.20;99.90;;;;;;5040438;28;20083;-70
2023/01/10 01:28:39;;;;;;;4.68;2.70;;;5.20;99.90;;;;;;5030232;28;20405;-69
2023/01/10 01:31:08;;;;;;;5.68;3.00;;;5.20;99.90;;;;;;5027668;28;20137;-69
2023/01/10 01:33:36;;;;;;;5.88;2.70;;;5.20;99.90;;;;;;5029488;28;20045;-69
2023/01/10 01:36:08;;;;;;;6.85;3.78;;;5.10;99.90;;;;;;5035621;28;20052;-71
2023/01/10 01:38:39;;;;;;;7.30;3.20;;;5.20;99.90;;;;;;5030939;28;20044;-68
2023/01/10 01:41:55;;;;;;;4.60;2.60;;;5.20;99.90;;;;;;5017347;28;20578;-69
2023/01/10 01:44:04;;;;;;;4.70;2.88;;;5.30;99.90;;;;;;5031124;28;20034;-68
2023/01/10 01:46:37;;;;;;;5.20;2.83;;;5.20;99.90;;;;;;5027191;28;20413;-68
2023/01/10 01:49:12;;;;;;;5.43;3.03;;;5.20;99.90;;;;;;5031828;28;20046;-68
2023/01/10 01:51:39;;;;;;;4.68;3.20;;;5.10;99.90;;;;;;5036864;28;20531;-69
2023/01/10 01:54:10;;;;;;;6.35;2.80;;;5.20;99.90;;;;;;5027562;28;20045;-69
2023/01/10 01:56:45;;;;;;;5.40;3.20;;;5.20;99.90;;;;;;5030056;28;20128;-68
2023/01/10 01:59:16;;;;;;;3.80;2.50;;;5.20;99.90;;;;;;5036694;28;20292;-69
2023/01/10 02:01:47;;;;;;;4.07;2.90;;;5.20;99.90;;;;;;5029658;28;20049;-69
2023/01/10 02:04:28;;;;;;;6.38;2.90;;;5.20;99.90;;;;;;5027899;28;20041;-70
2023/01/10 02:06:57;;;;;;;5.03;3.00;;;5.10;99.90;;;;;;5032336;28;20551;-68
2023/01/10 02:09:45;;;;;;;4.75;2.90;;;5.10;99.90;;;;;;5031113;28;20526;-69
2023/01/10 02:12:14;;;;;;;3.75;2.50;;;5.10;99.90;;;;;;5035567;28;20053;-68
2023/01/10 02:14:44;;;;;;;3.88;2.58;;;5.10;99.90;;;;;;5034009;28;20099;-68
2023/01/10 02:17:11;;;;;;;5.63;2.65;;;5.20;99.90;;;;;;5026296;28;20154;-71
2023/01/10 02:19:53;;;;;;;5.28;2.67;;;5.30;99.90;;;;;;5028572;28;20408;-71
2023/01/10 02:22:40;;;;;;;;;;;5.30;99.90;;;;;;5030038;28;20384;-68
2023/01/10 02:25:26;;;;;;;3.90;2.58;;;5.20;99.90;;;;;;5028153;28;19944;-71
2023/01/10 02:28:31;;;;;;;4.45;2.88;;;5.30;99.90;;;;;;5028944;28;20045;-70
2023/01/10 02:31:29;;;;;;;5.15;3.03;;;5.20;99.90;;;;;;5026180;28;20057;-70
2023/01/10 02:33:59;;;;;;;4.32;2.80;;;5.20;99.90;;;;;;5029060;28;20056;-71
2023/01/10 02:36:48;;;;;;;4.93;2.75;;;5.20;99.90;;;;;;5029147;28;20038;-70
2023/01/10 02:39:24;;;;;;;4.25;2.88;;;5.10;99.90;;;;;;5027998;28;20049;-70
2023/01/10 02:42:00;;;;;;;4.30;2.45;;;5.20;99.90;;;;;;5018756;28;20490;-70
2023/01/10 02:44:53;;;;;;;4.93;2.60;;;5.20;99.90;;;;;;5031542;28;20069;-70
2023/01/10 02:47:20;;;;;;;4.60;2.70;;;5.20;99.90;;;;;;5029564;28;20034;-70
2023/01/10 02:49:49;;;;;;;3.80;2.58;;;5.20;99.90;;;;;;5032122;28;20059;-70
2023/01/10 02:52:25;;;;;;;4.15;2.92;;;5.20;99.90;;;;;;5032690;28;20552;-71
2023/01/10 02:54:58;;;;;;;4.75;2.70;;;5.20;99.90;;;;;;5032890;28;20415;-70
2023/01/10 02:57:28;;;;;;;4.75;2.72;;;5.20;99.90;;;;;;5039910;28;20033;-69
2023/01/10 03:00:04;;;;;;;5.60;3.20;;;5.10;99.90;;;;;;5032844;28;20453;-70
2023/01/10 03:02:44;;;;;;;5.45;3.33;;;5.10;99.90;;;;;;5030756;28;20512;-70
2023/01/10 03:05:32;;;;;;;5.00;3.00;;;5.20;99.90;;;;;;5042080;28;20041;-70
2023/01/10 03:08:18;;;;;;;6.85;3.83;;;5.20;99.90;;;;;;5037177;28;20492;-69
2023/01/10 03:10:55;;;;;;;5.90;3.35;;;5.20;99.90;;;;;;5026832;28;20052;-70
2023/01/10 03:13:42;;;;;;;8.65;3.35;;;5.20;99.90;;;;;;5037388;28;20044;-70
2023/01/10 03:16:14;;;;;;;6.10;3.70;;;5.30;99.90;;;;;;5035043;28;20038;-70
2023/01/10 03:19:07;;;;;;;6.35;3.63;;;5.30;99.90;;;;;;5031498;28;20496;-70
2023/01/10 03:21:37;;;;;;;6.93;3.60;;;5.30;99.90;;;;;;5031903;28;20136;-70
2023/01/10 03:24:14;;;;;;;6.13;3.60;;;5.30;99.90;;;;;;5026027;28;20053;-71
2023/01/10 03:27:00;;;;;;;5.88;3.45;;;5.30;99.90;;;;;;5030433;28;20049;-70
2023/01/10 03:29:43;;;;;;;6.65;3.67;;;5.30;99.90;;;;;;5031716;28;20100;-70
2023/01/10 03:32:15;;;;;;;7.32;3.60;;;5.30;99.90;;;;;;5031595;28;20420;-71
2023/01/10 03:34:43;;;;;;;5.82;3.70;;;5.30;99.90;;;;;;5032079;28;20056;-70
2023/01/10 03:37:19;;;;;;;6.47;4.32;;;5.30;99.90;;;;;;5031234;28;20045;-70
2023/01/10 03:39:58;;;;;;;7.20;3.95;;;5.30;99.90;;;;;;5032778;28;20396;-70
2023/01/10 03:46:03;;;;;;;9.65;4.32;;;5.30;99.90;;;;;;5031658;28;20033;-70
2023/01/10 03:48:35;;;;;;;7.45;4.45;;;5.30;99.90;;;;;;5029958;28;20080;-70
2023/01/10 03:51:05;;;;;;;7.30;4.40;;;5.30;99.90;;;;;;5016441;28;20057;-70
2023/01/10 03:53:36;;;;;;;6.82;3.95;;;5.40;99.90;;;;;;5030142;28;20492;-69
2023/01/10 03:56:03;;;;;;;7.00;4.50;;;5.30;99.90;;;;;;5047950;28;20119;-70
2023/01/10 03:58:31;;;;;;;8.35;4.72;;;5.40;99.90;;;;;;5038746;28;20209;-69
2023/01/10 04:00:58;;;;;;;8.77;4.72;;;5.40;99.90;;;;;;5031924;28;20049;-70
2023/01/10 04:03:25;;;;;;;7.07;4.35;;;5.40;99.90;;;;;;5031427;28;20036;-70
2023/01/10 04:05:53;;;;;;;7.35;4.90;;;5.40;99.90;;;;;;5030656;28;20038;-70
2023/01/10 04:08:20;;;;;;;10.23;4.70;;;5.30;99.90;;;;;;5036123;28;20479;-69
2023/01/10 04:10:48;;;;;;;6.97;4.47;;;5.20;99.90;;;;;;5037653;28;20049;-70
2023/01/10 04:13:16;;;;;;;8.32;4.45;;;5.20;99.90;;;;;;5034294;28;20056;-70
2023/01/10 04:15:43;;;;;;;10.10;3.92;;;5.20;99.90;;;;;;5034603;28;20080;-69
2023/01/10 04:18:11;;;;;;;7.10;4.18;;;5.20;99.90;;;;;;5036224;28;20540;-70
2023/01/10 04:20:39;;;;;;;7.70;4.32;;;5.20;99.90;;;;;;5031796;28;20141;-69
2023/01/10 04:23:06;;;;;;;7.80;4.25;;;5.20;99.90;;;;;;5033172;28;20045;-69
2023/01/10 04:25:33;;;;;;;7.90;4.30;;;5.20;99.90;;;;;;5046278;28;20094;-69
2023/01/10 04:28:01;;;;;;;8.88;5.28;;;5.20;99.90;;;;;;5014755;28;20045;-68
2023/01/10 04:30:28;;;;;;;7.68;5.05;;;5.20;99.90;;;;;;5030710;28;20052;-69
2023/01/10 04:32:55;;;;;;;7.88;4.80;;;5.20;99.90;;;;;;5041361;28;20053;-69
2023/01/10 04:35:22;;;;;;;10.20;5.30;;;5.20;99.90;;;;;;5029814;28;20402;-69
2023/01/10 04:37:50;;;;;;;7.85;5.22;;;5.20;99.90;;;;;;5032334;28;20041;-70
2023/01/10 04:40:18;;;;;;;8.20;5.07;;;5.20;99.90;;;;;;5030643;28;20550;-70
2023/01/10 04:42:45;;;;;;;9.68;5.38;;;5.20;99.90;;;;;;5033874;28;20052;-69
2023/01/10 04:45:16;;;;;;;9.77;5.68;;;5.20;99.90;;;;;;5030366;28;20504;-69
2023/01/10 04:47:49;;;;;;;8.23;5.40;;;5.20;99.90;;;;;;5025535;28;20454;-69
2023/01/10 04:50:16;;;;;;;9.88;5.70;;;5.20;99.90;;;;;;5030578;28;20049;-69
2023/01/10 04:52:44;;;;;;;10.32;5.35;;;5.10;99.90;;;;;;5030073;28;20045;-69
2023/01/10 04:55:11;;;;;;;7.85;5.10;;;5.10;99.90;;;;;;5034084;28;20045;-69
2023/01/10 04:57:38;;;;;;;9.77;5.43;;;5.10;99.90;;;;;;5029287;28;20053;-69
2023/01/10 05:00:07;;;;;;;9.30;5.40;;;5.10;99.90;;;;;;5033665;28;20500;-69
2023/01/10 05:02:34;;;;;;;8.75;5.72;;;5.20;99.90;;;;;;5035840;28;20422;-69
2023/01/10 05:05:02;;;;;;;10.50;5.45;;;5.20;99.90;;;;;;5029745;28;20472;-69
2023/01/10 05:07:29;;;;;;;8.05;5.50;;;5.10;99.90;;;;;;5030653;28;20489;-70
2023/01/10 05:09:56;;;;;;;9.40;4.80;;;5.20;99.90;;;;;;5012138;28;20493;-69
2023/01/10 05:12:24;;;;;;;7.22;4.55;;;5.20;99.90;;;;;;5034842;28;20045;-71
2023/01/10 05:14:51;;;;;;;9.30;5.18;;;5.10;99.90;;;;;;5039338;28;20460;-69
2023/01/10 05:17:18;;;;;;;10.05;5.43;;;5.10;99.90;;;;;;5028620;28;20133;-69
2023/01/10 05:19:45;;;;;;;7.85;5.13;;;5.10;99.90;;;;;;5030278;28;20077;-68
2023/01/10 05:22:13;;;;;;;9.38;5.18;;;5.20;99.90;;;;;;5030556;28;20500;-70
2023/01/10 05:24:40;;;;;;;12.15;5.15;;;5.10;99.90;;;;;;5030773;28;20124;-69
2023/01/10 05:27:07;;;;;;;8.57;5.03;;;5.10;99.90;;;;;;5030607;28;20052;-70
2023/01/10 05:29:35;;;;;;;8.50;5.45;;;5.10;99.90;;;;;;5030525;28;20402;-68
2023/01/10 05:32:02;;;;;;;8.93;4.93;;;5.10;99.90;;;;;;5017386;28;20175;-69
2023/01/10 05:34:29;;;;;;;10.77;5.65;;;5.10;99.90;;;;;;5029275;28;20515;-69
2023/01/10 05:36:57;;;;;;;8.95;5.40;;;5.10;99.90;;;;;;5030182;28;20060;-70
2023/01/10 05:39:24;;;;;;;10.48;5.28;;;5.10;99.90;;;;;;5036952;28;20395;-69
2023/01/10 05:41:51;;;;;;;9.40;5.25;;;5.10;99.90;;;;;;5034675;28;20128;-68
2023/01/10 05:44:19;;;;;;;11.50;5.57;;;5.10;99.90;;;;;;5027978;28;20041;-69
2023/01/10 05:46:46;;;;;;;8.75;5.20;;;5.20;99.90;;;;;;5029547;28;20053;-70
2023/01/10 05:49:13;;;;;;;11.40;5.07;;;5.20;99.90;;;;;;5029102;28;20072;-70
2023/01/10 05:51:43;;;;;;;8.98;4.95;;;5.20;99.90;;;;;;5028928;28;20053;-69
2023/01/10 05:54:11;;;;;;;11.18;5.72;;;5.20;99.90;;;;;;5039005;28;20179;-69
2023/01/10 05:56:38;;;;;;;14.13;5.85;;;5.20;99.90;;;;;;5028455;28;20484;-70
2023/01/10 05:59:05;;;;;;;11.20;5.13;;;5.20;99.90;;;;;;5026372;28;20294;-70
2023/01/10 06:01:49;;;;;;;10.95;5.80;;;5.20;99.90;;;;;;5028641;28;20064;-69
2023/01/10 06:04:17;;;;;;;7.95;5.35;;;5.20;99.90;;;;;;5027272;28;20047;-69
2023/01/10 06:06:44;;;;;;;11.45;5.43;;;5.30;99.90;;;;;;5014380;28;20066;-68
2023/01/10 06:09:11;;;;;;;9.98;4.90;;;5.30;99.90;;;;;;5026569;28;20064;-71
2023/01/10 06:11:39;;;;;;;9.98;4.88;;;5.30;99.90;;;;;;5028549;28;20049;-70
2023/01/10 06:14:06;;;;;;;10.43;5.32;;;5.30;99.90;;;;;;5027796;28;20057;-70
2023/01/10 06:16:33;;;;;;;9.13;4.53;;;5.30;99.90;;;;;;5029899;28;20052;-70
2023/01/10 06:19:01;;;;;;;9.15;4.53;;;5.20;99.90;;;;;;5029556;28;20041;-70
2023/01/10 06:21:28;;;;;;;10.38;4.68;;;5.20;99.90;;;;;;5029555;28;20037;-70
2023/01/10 06:23:56;;;;;;;10.52;5.20;;;5.20;99.90;;;;;;5026200;28;20049;-70
2023/01/10 06:26:23;;;;;;;7.30;4.28;;;5.20;99.90;;;;;;5028721;28;20065;-71
2023/01/10 06:28:51;;;;;;;10.07;4.85;;;5.20;99.90;;;;;;5029784;28;20128;-70
2023/01/10 06:31:18;;;;;;;8.80;5.05;;;5.20;99.90;;;;;;5029878;28;20059;-72
2023/01/10 06:33:51;;;;;;;10.90;5.10;;;5.20;99.90;;;;;;5029356;28;20595;-70
2023/01/10 06:36:19;;;;;;;10.70;4.57;;;5.20;99.90;;;;;;5024839;28;20057;-69
2023/01/10 06:38:46;;;;;;;8.48;4.13;;;5.20;99.90;;;;;;5003967;28;20476;-70
2023/01/10 06:41:13;;;;;;;10.93;4.55;;;5.10;99.90;;;;;;5018238;28;20415;-69
2023/01/10 06:43:45;;;;;;;8.52;4.65;;;5.20;99.90;;;;;;5010956;28;20136;-71
2023/01/10 06:46:15;;;;;;;9.88;4.35;;;5.20;99.90;;;;;;5023946;28;20174;-70
2023/01/10 06:48:44;;;;;;;7.32;4.57;;;5.20;99.90;;;;;;5027388;28;20041;-66
2023/01/10 06:51:13;;;;;;;9.60;4.82;;;5.10;99.90;;;;;;5026998;28;20120;-66
2023/01/10 06:53:41;;;;;;;10.18;4.55;;;5.10;99.90;;;;;;5027762;28;20049;-66
2023/01/10 06:56:09;;;;;;;9.55;4.70;;;5.20;99.90;;;;;;5022659;28;20084;-65
2023/01/10 06:58:37;;;;;;;7.25;4.10;;;5.10;99.90;;;;;;5028485;28;20053;-65
2023/01/10 07:01:16;;;;;;;11.52;4.45;;;5.10;99.90;;;;;;5023549;28;20388;-67
2023/01/10 07:03:43;;;;;;;10.70;4.38;;;5.10;99.90;;;;;;5013997;28;20052;-67
2023/01/10 07:06:11;;;;;;;9.52;4.80;;;5.10;99.90;;;;;;5029103;28;20061;-67
2023/01/10 07:08:40;;;;;;;10.93;4.45;;;5.10;99.90;;;;;;5027910;28;20053;-68
2023/01/10 07:11:08;;;;;;;8.07;4.38;;;5.10;99.90;;;;;;5024803;28;20041;-69
2023/01/10 07:13:36;;;;;;;11.25;4.93;;;5.10;99.90;;;;;;5024504;28;20628;-68
2023/01/10 07:16:05;;;;;;;7.82;3.97;;;5.10;99.90;;;;;;5029543;28;20053;-68
2023/01/10 07:18:33;;;;;;;15.80;6.32;;;5.10;99.90;;;;;;5026823;28;20061;-69
2023/01/10 07:21:01;;;;;;;10.75;4.55;;;5.00;99.90;;;;;;5025242;28;20527;-69
2023/01/10 07:23:30;;;;;;;10.80;4.35;;;5.00;99.90;;;;;;5008606;28;20516;-70
2023/01/10 07:26:01;;;;;;;10.75;4.47;;;5.00;99.90;;;;;;5030454;28;20046;-68
2023/01/10 07:28:28;;;;;;;9.57;4.00;;;5.00;99.90;;;;;;5028697;28;20175;-67
2023/01/10 07:31:00;;;;;;;10.65;3.97;;;5.00;99.90;;;;;;5031440;28;20407;-69
2023/01/10 07:33:28;;;;;;;12.27;5.32;;;5.00;99.90;;;;;;5032300;28;20091;-69
2023/01/10 07:35:57;;;;;;;8.05;3.25;;;5.00;99.90;;;;;;5032636;28;20037;-69
2023/01/10 07:38:24;;;;;;;10.73;3.40;;;5.00;99.90;;;;;;5031276;28;20045;-70
2023/01/10 07:40:51;;;;;;;5.63;3.25;;;5.10;99.90;;;;;;5031432;28;20464;-67
2023/01/10 07:43:18;;;;;;;7.05;3.33;;;5.20;99.90;;;;;;5032334;28;20426;-68
2023/01/10 07:45:46;;;;;;;8.45;3.10;;;5.20;99.90;;;;;;5030371;28;20373;-69
2023/01/10 07:48:13;;;;;;;10.63;3.30;;;5.10;99.90;;;;;;5014258;28;20057;-68
2023/01/10 07:50:40;;;;;;;12.07;4.07;;;5.20;99.90;;;;;;5031040;28;20035;-69
2023/01/10 07:53:08;;;;;;;10.40;3.63;;;5.20;99.90;;;;;;5039409;28;20053;-69
2023/01/10 07:55:37;;;;;;;9.27;3.33;;;5.20;99.90;;;;;;5029000;28;20200;-69
2023/01/10 07:58:06;;;;;;;12.65;4.32;;;5.20;99.90;;;;;;5041197;28;20439;-68
2023/01/10 08:00:34;;;;;;;6.85;3.25;;;5.20;99.90;;;;;;5014198;28;20041;-69
2023/01/10 08:03:02;;;;;;;12.50;3.70;;;5.30;99.90;;;;;;5037327;28;20554;-69
2023/01/10 08:05:30;;;;;;;7.57;3.35;;;5.20;99.90;;;;;;5031476;28;20057;-69
2023/01/10 08:08:06;;;;;;;9.68;3.15;;;5.20;99.90;;;;;;5022351;28;20084;-69
2023/01/10 08:10:35;;;;;;;10.68;4.68;;;5.20;99.90;;;;;;5029385;28;20579;-69
2023/01/10 08:13:04;;;;;;;11.75;3.60;;;5.20;99.90;;;;;;5030251;28;20080;-69
2023/01/10 08:15:48;;;;;;;12.38;3.65;;;5.30;99.90;;;;;;5010147;28;20072;-68
2023/01/10 08:18:17;;;;;;;16.38;3.50;;;5.30;99.90;;;;;;5013542;28;20487;-69
2023/01/10 08:20:47;;;;;;;8.57;3.03;;;5.30;99.90;;;;;;5029792;28;20431;-69
2023/01/10 08:23:16;;;;;;;10.63;3.63;;;5.20;99.90;;;;;;5019661;28;20573;-69
2023/01/10 08:25:44;;;;;;;10.48;3.35;;;5.20;99.90;;;;;;5030423;28;20045;-68
2023/01/10 08:28:12;;;;;;;10.38;3.80;;;5.30;99.90;;;;;;5011259;28;20132;-68
2023/01/10 08:30:40;;;;;;;7.70;3.42;;;5.30;99.90;;;;;;5025397;28;20121;-69
2023/01/10 08:33:09;;;;;;;10.82;3.60;;;5.30;99.90;;;;;;5031223;28;20495;-69
2023/01/10 08:35:42;;;;;;;10.20;3.22;;;5.30;99.90;;;;;;5026755;28;20412;-68
2023/01/10 08:38:10;;;;;;;10.45;3.42;;;5.30;99.90;;;;;;5030512;28;20480;-69
2023/01/10 08:40:38;;;;;;;10.07;3.45;;;5.40;99.90;;;;;;5034202;28;20056;-68
2023/01/10 08:43:10;;;;;;;11.15;3.33;;;5.40;99.90;;;;;;5016702;28;20049;-69
2023/01/10 08:45:38;;;;;;;7.82;3.40;;;5.40;99.90;;;;;;5026789;28;20052;-68
2023/01/10 08:48:08;;;;;;;7.25;3.40;;;5.40;99.90;;;;;;5032254;28;20472;-69
2023/01/10 08:50:35;;;;;;;5.97;3.50;;;5.40;99.90;;;;;;5029296;28;20400;-68
2023/01/10 08:53:03;;;;;;;7.18;3.13;;;5.40;99.90;;;;;;5015197;28;20523;-69
2023/01/10 08:55:30;;;;;;;7.22;3.85;;;5.50;99.90;;;;;;5027334;28;20578;-70
2023/01/10 08:57:59;;;;;;;7.65;3.50;;;5.40;99.90;;;;;;5030648;28;20083;-70
2023/01/10 09:00:27;;;;;;;9.85;3.85;;;5.50;99.90;;;;;;5030716;28;20476;-70
2023/01/10 09:02:54;;;;;;;13.35;4.25;;;5.50;99.90;;;;;;5032956;28;20045;-69
2023/01/10 09:05:22;;;;;;;13.55;3.83;;;5.50;99.90;;;;;;5031906;28;20052;-70
2023/01/10 09:08:02;;;;;;;11.45;3.78;;;5.50;99.90;;;;;;5030544;28;20462;-69
2023/01/10 09:10:29;;;;;;;10.05;3.70;;;5.60;99.90;;;;;;5027900;28;20049;-69
2023/01/10 09:13:00;;;;;;;7.70;4.22;;;5.60;99.90;;;;;;5019431;28;20111;-68
2023/01/10 09:15:33;;;;;;;7.70;3.80;;;5.50;99.90;;;;;;5028854;28;20411;-70
2023/01/10 09:18:03;;;;;;;11.75;4.53;;;5.60;99.90;;;;;;5029358;28;20049;-69
2023/01/10 09:20:33;;;;;;;12.40;3.95;;;5.60;99.90;;;;;;5030653;28;20049;-68
2023/01/10 09:23:06;;;;;;;9.63;4.00;;;5.50;99.90;;;;;;5028946;28;20476;-69
2023/01/10 09:25:34;;;;;;;9.55;3.97;;;5.50;99.90;;;;;;5040871;28;20053;-69
2023/01/10 09:28:04;;;;;;;11.55;4.55;;;5.50;99.90;;;;;;5030259;28;20124;-68
2023/01/10 09:30:32;;;;;;;10.27;3.88;;;5.40;99.90;;;;;;5029050;28;20045;-68
2023/01/10 09:33:00;;;;;;;8.45;4.10;;;5.50;99.90;;;;;;5027230;28;20136;-68
2023/01/10 09:35:29;;;;;;;8.57;4.22;;;5.40;99.90;;;;;;5027331;28;20053;-68
2023/01/10 09:38:00;;;;;;;11.88;4.20;;;5.50;99.90;;;;;;5028897;28;20050;-69
2023/01/10 09:40:36;;;;;;;9.25;3.60;;;5.50;99.90;;;;;;5031308;28;20034;-68
2023/01/10 09:43:31;;;;;;;11.77;3.95;;;5.40;99.90;;;;;;5026810;28;20082;-70
2023/01/10 09:46:20;;;;;;;12.02;3.75;;;5.50;99.90;;;;;;5012591;28;20057;-70
2023/01/10 09:49:16;;;;;;;9.65;4.40;;;5.60;99.90;;;;;;4995313;28;20057;-69
2023/01/10 09:51:47;;;;;;;10.07;4.07;;;5.70;99.90;;;;;;5028998;28;20068;-72
2023/01/10 09:54:21;;;;;;;9.18;4.07;;;5.70;99.90;;;;;;5033811;28;20041;-69
2023/01/10 09:56:49;;;;;;;10.73;4.50;;;5.80;99.90;;;;;;5019428;28;20417;-68
2023/01/10 09:59:24;;;;;;;12.88;4.13;;;5.80;99.90;;;;;;5029331;28;20044;-70
2023/01/10 10:02:03;;;;;;;7.85;3.60;;;5.80;99.90;;;;;;5006025;28;20045;-69
2023/01/10 10:04:35;;;;;;;11.05;4.18;;;5.80;99.90;;;;;;5028046;28;20034;-69
2023/01/10 10:07:13;;;;;;;11.75;4.07;;;5.80;99.90;;;;;;5034153;28;20037;-68
2023/01/10 10:09:42;;;;;;;10.80;3.95;;;5.90;99.90;;;;;;5015100;28;20071;-68
2023/01/10 10:12:21;;;;;;;8.93;4.20;;;6.10;99.90;;;;;;5031651;28;20068;-68
2023/01/10 10:15:10;;;;;;;13.05;3.65;;;6.10;99.90;;;;;;5028244;28;20515;-69
2023/01/10 10:17:47;;;;;;;10.77;3.70;;;6.30;99.90;;;;;;5027641;28;20067;-69
2023/01/10 10:20:23;;;;;;;11.30;4.10;;;6.30;99.90;;;;;;5033788;28;20520;-69
2023/01/10 10:23:10;;;;;;;11.27;4.10;;;6.20;99.90;;;;;;5022892;28;20128;-69
2023/01/10 10:25:54;;;;;;;16.52;4.25;;;6.10;99.90;;;;;;5031938;28;20041;-67
2023/01/10 10:28:52;;;;;;;10.25;3.92;;;6.10;99.90;;;;;;5024768;28;20041;-68
2023/01/10 10:31:42;;;;;;;12.25;3.92;;;6.00;99.90;;;;;;5028364;28;20048;-69
2023/01/10 10:34:24;;;;;;;12.10;3.42;;;6.00;99.90;;;;;;5023840;28;20041;-69
2023/01/10 10:36:53;;;;;;;9.40;3.85;;;6.00;99.90;;;;;;5026332;28;20336;-68
2023/01/10 10:39:40;;;;;;;12.73;3.90;;;6.10;99.90;;;;;;5008593;28;20132;-68
2023/01/10 10:42:12;;;;;;;10.98;3.38;;;6.10;99.90;;;;;;5009098;28;20471;-69
2023/01/10 10:44:46;;;;;;;9.30;3.40;;;6.10;99.90;;;;;;5012094;28;20049;-70
2023/01/10 10:47:16;;;;;;;12.50;4.70;;;6.00;99.90;;;;;;5024364;28;20047;-69
2023/01/10 10:49:49;;;;;;;11.80;3.95;;;5.90;99.90;;;;;;5024500;28;20132;-69
2023/01/10 10:52:26;;;;;;;11.93;3.97;;;5.90;99.90;;;;;;5027799;28;20057;-69
2023/01/10 10:54:54;;;;;;;10.10;3.50;;;5.90;99.90;;;;;;5024525;28;20041;-69
2023/01/10 10:57:26;;;;;;;9.77;3.55;;;6.00;99.90;;;;;;5029053;28;20065;-69
2023/01/10 10:59:55;;;;;;;10.70;4.00;;;6.00;99.90;;;;;;5027193;28;20644;-69
2023/01/10 11:02:30;;;;;;;7.95;3.30;;;6.10;99.90;;;;;;5029918;28;20041;-69
2023/01/10 11:05:12;;;;;;;11.82;5.05;;;6.10;99.90;;;;;;5030012;28;20180;-69
2023/01/10 11:07:40;;;;;;;14.95;3.65;;;6.10;99.90;;;;;;5029488;28;20042;-68
2023/01/10 11:10:34;;;;;;;9.93;3.53;;;6.00;99.90;;;;;;5029532;28;20403;-69
2023/01/10 11:13:32;;;;;;;10.43;4.07;;;6.00;99.90;;;;;;5046236;28;20057;-69
2023/01/10 11:16:05;;;;;;;10.88;4.50;;;6.10;99.90;;;;;;5029623;28;20083;-69
2023/01/10 11:18:33;;;;;;;10.20;3.63;;;6.20;99.90;;;;;;5044531;28;20037;-70
2023/01/10 11:21:27;;;;;;;7.28;3.13;;;6.10;99.90;;;;;;5012544;28;20496;-70
2023/01/10 11:23:56;;;;;;;8.80;3.35;;;6.20;99.90;;;;;;5017298;28;20052;-69
2023/01/10 11:26:27;;;;;;;9.35;2.95;;;6.30;99.90;;;;;;5014601;28;20045;-70
2023/01/10 11:29:06;;;;;;;11.82;3.70;;;6.30;99.90;;;;;;5018656;28;20211;-68
2023/01/10 11:31:36;;;;;;;7.68;2.63;;;6.30;99.90;;;;;;5030763;28;20049;-70
2023/01/10 11:34:15;;;;;;;11.43;3.08;;;6.40;99.90;;;;;;5030778;28;20057;-70
2023/01/10 11:36:57;;;;;;;9.55;2.75;;;6.40;99.90;;;;;;5030234;28;20041;-69
2023/01/10 11:39:27;;;;;;;8.70;3.28;;;6.20;99.90;;;;;;5027076;28;20053;-69
2023/01/10 11:41:57;;;;;;;4.85;2.50;;;6.30;99.90;;;;;;5012604;28;20045;-70
2023/01/10 11:44:27;;;;;;;11.38;3.08;;;6.30;99.90;;;;;;5038658;28;20041;-69
2023/01/10 11:47:10;;;;;;;8.27;2.95;;;6.30;99.90;;;;;;5031065;28;20041;-69
2023/01/10 11:49:42;;;;;;;10.02;2.80;;;6.40;99.90;;;;;;5013674;28;20037;-69
2023/01/10 11:52:29;;;;;;;7.53;3.05;;;6.30;99.90;;;;;;5013266;28;20049;-69
2023/01/10 11:54:59;;;;;;;10.30;2.83;;;6.30;99.90;;;;;;5028672;28;20048;-70
2023/01/10 11:57:30;;;;;;;9.95;3.42;;;6.30;99.90;;;;;;4994258;28;20034;-69
2023/01/10 12:00:06;;;;;;;7.22;3.20;;;6.30;99.90;;;;;;5024166;28;20080;-68
2023/01/10 12:02:41;;;;;;;15.73;3.45;;;6.30;99.90;;;;;;5024166;28;20049;-68
2023/01/10 12:05:18;;;;;;;11.00;3.10;;;6.30;99.90;;;;;;5013801;28;20554;-68
2023/01/10 12:08:22;;;;;;;10.05;2.92;;;6.30;99.90;;;;;;5029277;28;20041;-68
2023/01/10 12:11:16;;;;;;;10.25;3.13;;;6.40;99.90;;;;;;5049063;28;20050;-68
2023/01/10 12:13:49;;;;;;;15.32;3.22;;;6.40;99.90;;;;;;5017924;28;20042;-68
2023/01/10 12:16:21;;;;;;;14.27;3.70;;;6.30;99.90;;;;;;5025400;28;20115;-67
2023/01/10 12:19:06;;;;;;;14.60;3.78;;;6.20;99.90;;;;;;5029413;28;20045;-69
2023/01/10 12:21:43;;;;;;;9.63;2.80;;;6.30;99.90;;;;;;5027797;28;20492;-70
2023/01/10 12:24:16;;;;;;;15.10;3.85;;;6.20;99.90;;;;;;5033714;28;20087;-70
2023/01/10 12:26:46;;;;;;;10.75;2.97;;;6.20;99.90;;;;;;5030453;28;20034;-69
2023/01/10 12:29:18;;;;;;;9.15;2.90;;;6.10;99.90;;;;;;5027527;28;20046;-70
2023/01/10 12:31:45;;;;;;;13.18;3.22;;;6.20;99.90;;;;;;5031527;28;20051;-70
2023/01/10 12:34:19;;;;;;;17.05;3.55;;;6.20;99.90;;;;;;5028870;28;20099;-71
2023/01/10 12:37:07;;;;;;;13.07;3.20;;;6.20;99.90;;;;;;5012924;28;20057;-69
2023/01/10 12:39:46;;;;;;;11.68;3.28;;;6.30;99.90;;;;;;5029364;28;20124;-70
2023/01/10 12:46:39;;;;;;;10.27;3.17;;;6.20;99.90;;;;;;4986064;28;20564;-71
2023/01/10 12:49:34;;;;;;;13.80;3.30;;;6.30;99.90;;;;;;4930304;29;20066;-70
2023/01/10 12:52:09;;;;;;;15.48;3.20;;;6.50;99.90;;;;;;4914716;29;20055;-69
2023/01/10 12:54:36;;;;;;;15.55;3.47;;;6.50;99.90;;;;;;4930794;29;20138;-69
2023/01/10 12:57:25;;;;;;;12.95;3.47;;;6.60;99.90;;;;;;4930920;29;20117;-68
2023/01/10 12:59:53;;;;;;;10.13;3.35;;;6.60;99.90;;;;;;4911725;29;20086;-68
2023/01/10 13:02:25;;;;;;;12.20;3.10;;;6.50;99.90;;;;;;4907419;29;20482;-70
2023/01/10 13:04:58;;;;;;;17.55;3.42;;;6.70;99.90;;;;;;4938695;29;20467;-71
2023/01/10 13:07:32;;;;;;;12.30;3.05;;;6.50;99.90;;;;;;4929848;29;20083;-71
2023/01/10 13:10:05;;;;;;;11.43;3.33;;;6.40;99.90;;;;;;4931663;29;20052;-71
2023/01/10 13:12:41;;;;;;;7.95;3.45;;;6.30;99.90;;;;;;4929073;29;20063;-71
2023/01/10 13:15:14;;;;;;;13.43;3.53;;;6.20;99.90;;;;;;4933667;29;20051;-69
2023/01/10 13:17:47;;;;;;;10.90;3.38;;;6.20;99.90;;;;;;4933323;29;20042;-70
2023/01/10 13:20:17;;;;;;;12.98;2.95;;;6.20;99.90;;;;;;5008146;28;20426;-71
2023/01/10 13:22:47;;;;;;;8.70;2.75;;;6.20;99.90;;;;;;5028429;28;20188;-69
2023/01/10 13:25:25;;;;;;;12.02;3.20;;;6.20;99.90;;;;;;5024760;28;20092;-69
2023/01/10 13:28:02;;;;;;;9.68;2.80;;;6.20;99.90;;;;;;5027420;28;20443;-69
2023/01/10 13:30:41;;;;;;;13.65;3.33;;;6.20;99.90;;;;;;5038712;28;20128;-70
2023/01/10 13:33:17;;;;;;;14.25;3.35;;;6.20;99.90;;;;;;5035172;28;20046;-69